createdAt,value
2022-12-18T00:03:09.691Z,102200.63
2022-12-18T00:08:11.420Z,102206.84
2022-12-18T00:13:13.176Z,102211.97
2022-12-18T00:18:19.009Z,102203.88
2022-12-18T00:23:22.076Z,102203.00
2022-12-18T00:28:23.534Z,102200.34
2022-12-18T00:33:24.980Z,102205.88
2022-12-18T00:38:26.446Z,102208.06
2022-12-18T00:43:27.927Z,102215.50
2022-12-18T00:48:29.385Z,102224.44
2022-12-18T00:53:30.856Z,102218.13
2022-12-18T00:58:32.351Z,102241.09
2022-12-18T01:03:33.824Z,102229.28
2022-12-18T01:08:35.448Z,102243.44
2022-12-18T01:13:37.219Z,102238.69
2022-12-18T01:18:38.940Z,102249.56
2022-12-18T01:23:40.883Z,102231.38
2022-12-18T01:28:42.943Z,102247.31
2022-12-18T01:33:44.820Z,102250.06
2022-12-18T01:38:46.395Z,102241.25
2022-12-18T01:43:53.289Z,102246.44
2022-12-18T01:48:57.351Z,102251.13
2022-12-18T01:53:59.727Z,102245.19
2022-12-18T01:59:03.409Z,102256.59
2022-12-18T02:04:18.533Z,102250.34
2022-12-18T02:09:21.722Z,102246.53
2022-12-18T02:14:39.447Z,102242.84
2022-12-18T02:19:58.698Z,102240.00
2022-12-18T02:25:22.348Z,102236.91
2022-12-18T02:30:23.814Z,102238.91
2022-12-18T02:35:26.234Z,102250.34
2022-12-18T02:40:28.043Z,102249.44
2022-12-18T02:45:29.572Z,102262.06
2022-12-18T02:50:32.284Z,102264.97
2022-12-18T02:56:00.075Z,102260.03
2022-12-18T03:01:11.583Z,102266.47
2022-12-18T03:06:22.123Z,102241.84
2022-12-18T03:11:44.777Z,102255.78
2022-12-18T03:16:46.290Z,102249.09
2022-12-18T03:21:49.250Z,102252.16
2022-12-18T03:26:53.597Z,102243.19
2022-12-18T03:31:59.147Z,102236.31
2022-12-18T03:37:00.606Z,102246.34
2022-12-18T03:42:35.662Z,102257.16
2022-12-18T03:47:46.104Z,102251.16
2022-12-18T03:52:51.174Z,102273.50
2022-12-18T03:57:52.626Z,102254.72
2022-12-18T04:02:55.052Z,102280.22
2022-12-18T04:07:56.517Z,102281.59
2022-12-18T04:12:58.400Z,102293.22
2022-12-18T04:17:59.858Z,102312.84
2022-12-18T04:23:01.322Z,102324.94
2022-12-18T04:28:13.720Z,102328.72
2022-12-18T04:33:17.939Z,102321.78
2022-12-18T04:38:19.456Z,102308.41
2022-12-18T04:43:21.061Z,102307.69
2022-12-18T04:48:22.587Z,102312.06
2022-12-18T04:53:24.154Z,102312.09
2022-12-18T04:58:25.605Z,102319.31
2022-12-18T05:03:27.125Z,102318.50
2022-12-18T05:08:28.629Z,102318.66
2022-12-18T05:13:30.188Z,102298.53
2022-12-18T05:18:31.791Z,102320.47
2022-12-18T05:23:33.248Z,102313.63
2022-12-18T05:28:35.171Z,102320.25
2022-12-18T05:33:36.829Z,102307.63
2022-12-18T05:38:39.457Z,102300.97
2022-12-18T05:43:41.578Z,102304.38
2022-12-18T05:48:43.545Z,102307.84
2022-12-18T05:53:45.050Z,102308.59
2022-12-18T05:58:46.550Z,102315.72
2022-12-18T06:03:48.250Z,102308.06
2022-12-18T06:08:50.130Z,102316.00
2022-12-18T06:13:58.665Z,102323.97
2022-12-18T06:19:01.146Z,102334.28
2022-12-18T06:24:02.935Z,102327.06
2022-12-18T06:29:04.400Z,102336.50
2022-12-18T06:34:05.860Z,102351.25
2022-12-18T06:39:07.332Z,102365.59
2022-12-18T06:44:09.193Z,102364.28
2022-12-18T06:49:12.387Z,102368.38
2022-12-18T06:54:13.862Z,102372.50
2022-12-18T06:59:15.674Z,102378.94
2022-12-18T07:04:17.136Z,102385.59
2022-12-18T07:09:18.583Z,102390.06
2022-12-18T07:14:20.164Z,102390.59
2022-12-18T07:19:24.488Z,102383.91
2022-12-18T07:24:25.939Z,102391.59
2022-12-18T07:29:27.393Z,102376.38
2022-12-18T07:34:28.849Z,102392.56
2022-12-18T07:39:30.294Z,102380.56
2022-12-18T07:44:31.751Z,102380.44
2022-12-18T07:49:33.213Z,102385.47
2022-12-18T07:54:34.747Z,102383.75
2022-12-18T07:59:36.330Z,102387.91
2022-12-18T08:04:38.383Z,102396.38
2022-12-18T08:09:39.835Z,102396.09
2022-12-18T08:14:41.283Z,102404.66
2022-12-18T08:19:42.746Z,102415.78
2022-12-18T08:24:44.259Z,102408.16
2022-12-18T08:29:45.834Z,102406.41
2022-12-18T08:34:47.282Z,102410.75
2022-12-18T08:39:48.757Z,102397.41
2022-12-18T08:44:50.227Z,102395.97
2022-12-18T08:49:51.773Z,102400.41
2022-12-18T08:54:53.240Z,102391.88
2022-12-18T08:59:55.055Z,102397.94
2022-12-18T09:04:57.807Z,102397.53
2022-12-18T09:09:59.368Z,102407.69
2022-12-18T09:15:00.841Z,102419.75
2022-12-18T09:20:02.324Z,102434.31
2022-12-18T09:25:03.976Z,102431.94
2022-12-18T09:30:05.976Z,102428.47
2022-12-18T09:35:07.628Z,102444.59
2022-12-18T09:40:23.587Z,102453.34
2022-12-18T09:45:25.076Z,102441.66
2022-12-18T09:50:31.142Z,102440.31
2022-12-18T09:55:39.338Z,102424.66
2022-12-18T10:00:43.613Z,102416.03
2022-12-18T10:06:04.047Z,102435.25
2022-12-18T10:11:26.616Z,102440.28
2022-12-18T10:16:56.788Z,102439.31
2022-12-18T10:22:20.076Z,102448.47
2022-12-18T10:27:26.548Z,102439.44
2022-12-18T10:32:30.042Z,102418.22
2022-12-18T10:37:31.501Z,102422.00
2022-12-18T10:42:33.563Z,102414.75
2022-12-18T10:47:35.083Z,102423.69
2022-12-18T10:52:39.615Z,102426.44
2022-12-18T10:57:45.012Z,102431.47
2022-12-18T11:02:46.626Z,102432.06
2022-12-18T11:07:50.355Z,102398.19
2022-12-18T11:12:51.666Z,102381.94
2022-12-18T11:17:53.129Z,102375.78
2022-12-18T11:23:13.627Z,102373.44
2022-12-18T11:28:35.317Z,102378.06
2022-12-18T11:33:36.776Z,102365.00
2022-12-18T11:38:40.241Z,102364.13
2022-12-18T11:43:53.977Z,102362.97
2022-12-18T11:49:02.822Z,102349.81
2022-12-18T11:54:12.929Z,102327.06
2022-12-18T11:59:35.917Z,102321.69
2022-12-18T12:04:41.157Z,102313.56
2022-12-18T12:09:55.288Z,102313.59
2022-12-18T12:15:14.042Z,102305.59
2022-12-18T12:20:25.906Z,102305.31
2022-12-18T12:25:47.791Z,102290.56
2022-12-18T12:31:19.947Z,102296.41
2022-12-18T12:36:54.568Z,102302.69
2022-12-18T12:42:14.377Z,102305.78
2022-12-18T12:47:18.664Z,102285.47
2022-12-18T12:52:31.473Z,102286.50
2022-12-18T12:57:46.020Z,102298.22
2022-12-18T13:03:04.524Z,102299.38
2022-12-18T13:08:07.674Z,102291.88
2022-12-18T13:13:13.375Z,102267.75
2022-12-18T13:18:26.290Z,102251.28
2022-12-18T13:23:29.724Z,102252.34
2022-12-18T13:28:33.800Z,102249.09
2022-12-18T13:33:35.379Z,102235.72
2022-12-18T13:38:37.515Z,102240.09
2022-12-18T13:43:49.394Z,102241.47
2022-12-18T13:48:59.203Z,102230.50
2022-12-18T13:54:04.595Z,102235.00
2022-12-18T13:59:11.478Z,102228.97
2022-12-18T14:04:18.932Z,102211.25
2022-12-18T14:09:25.528Z,102195.53
2022-12-18T14:14:33.566Z,102182.59
2022-12-18T14:19:35.759Z,102173.97
2022-12-18T14:24:37.213Z,102167.22
2022-12-18T14:29:38.672Z,102166.69
2022-12-18T14:34:40.129Z,102153.09
2022-12-18T14:39:41.623Z,102158.59
2022-12-18T14:45:05.191Z,102136.94
2022-12-18T14:50:04.731Z,102131.44
2022-12-18T14:55:06.692Z,102128.38
2022-12-18T15:00:15.316Z,102121.88
2022-12-18T15:05:30.213Z,102103.44
2022-12-18T15:10:34.774Z,102105.81
2022-12-18T15:15:36.908Z,102117.41
2022-12-18T15:20:56.028Z,102110.19
2022-12-18T15:26:07.459Z,102105.59
2022-12-18T15:31:12.423Z,102097.41
2022-12-18T15:36:14.890Z,102089.38
2022-12-18T15:41:22.879Z,102071.88
2022-12-18T15:46:25.972Z,102072.03
2022-12-18T15:51:29.471Z,102055.53
2022-12-18T15:56:49.119Z,102059.28
2022-12-18T16:01:53.746Z,102044.75
2022-12-18T16:07:14.541Z,102034.75
2022-12-18T16:12:18.140Z,102027.22
2022-12-18T16:17:19.624Z,102012.31
2022-12-18T16:22:25.866Z,102014.88
2022-12-18T16:27:27.327Z,101998.41
2022-12-18T16:32:28.801Z,101988.88
2022-12-18T16:37:30.263Z,101983.88
2022-12-18T16:42:31.728Z,101976.75
2022-12-18T16:47:33.529Z,101969.44
2022-12-18T16:52:35.333Z,101960.63
2022-12-18T16:57:36.815Z,101951.13
2022-12-18T17:02:38.810Z,101947.91
2022-12-18T17:07:40.393Z,101939.38
2022-12-18T17:12:42.753Z,101931.00
2022-12-18T17:17:45.238Z,101930.31
2022-12-18T17:22:46.696Z,101910.94
2022-12-18T17:27:48.210Z,101894.53
2022-12-18T17:32:49.673Z,101882.03
2022-12-18T17:37:51.154Z,101870.03
2022-12-18T17:42:53.118Z,101869.31
2022-12-18T17:47:59.750Z,101858.25
2022-12-18T17:53:01.478Z,101853.66
2022-12-18T17:58:02.964Z,101819.50
2022-12-18T18:03:04.569Z,101813.19
2022-12-18T18:08:06.324Z,101817.56
2022-12-18T18:13:46.651Z,101809.19
2022-12-18T18:18:48.682Z,101789.22
2022-12-18T18:23:50.149Z,101795.59
2022-12-18T18:28:54.233Z,101781.88
2022-12-18T18:33:55.933Z,101784.81
2022-12-18T18:38:59.033Z,101778.53
2022-12-18T18:44:00.488Z,101777.78
2022-12-18T18:49:01.949Z,101803.72
2022-12-18T18:54:03.424Z,101781.59
2022-12-18T18:59:04.894Z,101789.00
2022-12-18T19:04:06.658Z,101772.91
2022-12-18T19:09:08.189Z,101757.56
2022-12-18T19:14:10.731Z,101761.47
2022-12-18T19:19:12.507Z,101763.50
2022-12-18T19:24:14.313Z,101760.09
2022-12-18T19:29:15.903Z,101747.75
2022-12-18T19:34:17.360Z,101753.00
2022-12-18T19:39:19.286Z,101740.97
2022-12-18T19:44:20.897Z,101725.72
2022-12-18T19:49:22.391Z,101732.38
2022-12-18T19:54:23.847Z,101720.97
2022-12-18T19:59:27.240Z,101715.75
2022-12-18T20:04:28.734Z,101721.91
2022-12-18T20:09:30.259Z,101735.47
2022-12-18T20:14:32.839Z,101722.41
2022-12-18T20:19:34.322Z,101726.78
2022-12-18T20:24:36.482Z,101708.75
2022-12-18T20:29:37.986Z,101695.03
2022-12-18T20:34:39.437Z,101688.06
2022-12-18T20:39:41.088Z,101697.84
2022-12-18T20:44:43.232Z,101694.88
2022-12-18T20:49:45.344Z,101688.91
2022-12-18T20:54:47.238Z,101677.56
2022-12-18T20:59:48.708Z,101667.88
2022-12-18T21:04:50.188Z,101691.91
2022-12-18T21:09:51.653Z,101675.75
2022-12-18T21:14:53.136Z,101671.78
2022-12-18T21:19:54.627Z,101652.31
2022-12-18T21:24:57.284Z,101671.41
2022-12-18T21:29:58.752Z,101659.78
2022-12-18T21:35:00.391Z,101645.38
2022-12-18T21:40:01.851Z,101639.69
2022-12-18T21:45:03.758Z,101627.84
2022-12-18T21:50:05.512Z,101628.88
2022-12-18T21:55:09.989Z,101616.16
2022-12-18T22:00:18.886Z,101612.69
2022-12-18T22:05:21.154Z,101600.38
2022-12-18T22:10:22.657Z,101604.97
2022-12-18T22:15:24.126Z,101581.41
2022-12-18T22:20:25.617Z,101585.50
2022-12-18T22:25:28.586Z,101582.13
2022-12-18T22:30:30.036Z,101553.06
2022-12-18T22:35:31.570Z,101576.34
2022-12-18T22:40:33.024Z,101553.03
2022-12-18T22:45:37.963Z,101549.09
2022-12-18T22:50:40.238Z,101538.75
2022-12-18T22:55:41.695Z,101559.31
2022-12-18T23:00:43.147Z,101538.72
2022-12-18T23:05:44.942Z,101538.19
2022-12-18T23:10:46.387Z,101535.19
2022-12-18T23:15:47.863Z,101523.25
2022-12-18T23:20:49.420Z,101522.59
2022-12-18T23:25:51.590Z,101507.31
2022-12-18T23:30:53.118Z,101502.97
2022-12-18T23:36:01.088Z,101498.69
2022-12-18T23:41:10.340Z,101483.19
2022-12-18T23:46:19.546Z,101480.84
2022-12-18T23:51:25.722Z,101468.72
2022-12-18T23:56:27.908Z,101457.75
